MMVR

Details ICAO MMVR (VER)
Name GENERAL HERIBERTO JARA INTL
Region Mexico
Timezone America/Mexico_City (UTC-5.0)
Plans Departing 61
Arriving 63
Stats Elevation 90 ft / 27 m (AMSL)
Location 19.141959° -96.186631°
Runways 2
Magnetic Variation 3.340° E
Sunrise 2018-05-21 11:49:36 UTC / 2018-05-21 06:49:36 Local
Sunset 2018-05-22 00:55:58 UTC / 2018-05-21 19:55:58 Local
Advertisement - Login to hide

Runways

ID Width Length Bearing (true) Bearing (mag) Surface Threshold Offset Overrun Length
09 148 ft / 45 m 5,020 ft / 1,530 m 100.99° 97.65° Asphalt 0 ft / 0 m 0 ft / 0 m
18 148 ft / 45 m 7,929 ft / 2,417 m 191.08° 187.74° Asphalt 0 ft / 0 m 0 ft / 0 m
27 148 ft / 45 m 5,020 ft / 1,530 m 280.99° 277.65° Asphalt 0 ft / 0 m 0 ft / 0 m
36 148 ft / 45 m 7,929 ft / 2,417 m 11.08° 7.74° Asphalt 0 ft / 0 m 190 ft / 58 m

Map

Weather


0- 5 10 15 20 25 30 35+ Temperature / ° C

Clouds and Precipitation
Forecast for 2018-05-21 18:00 UTC. Updated 26 minutes ago

Ground ~20,000 ft ~40,000 ft Winds

METAR

MMVR 211447Z 07007KT 5SM FEW012TCU SCT070 30/23 A2989 RMK SLP100 52016 904 8/230 HZY

TAF

Not found

Frequencies

Recorded 127.80 MHz ATIS
Approach 120.40 MHz VERACRUZ APP
Tower 118.50 MHz VERACRUZ TWR
Warning: Do not use this data for real-world aviation or navigation. No guarantee of current accuracy is given.